Sea Cloud — 9HOM2 — position and weather

sailwx.info

Track history (hours):
 
Tides and Currents Weather Stations Pressure Air Temp Water Temp Dewpoint Dewpoint Depression Visibility Wind Speed Wind Dir Waves Ship Positions

Sea Cloud

Ship's website: http://www.seacloud.com/en/the-ships/sea-cloud.html

Last reported at 2018-Feb-18 09:16 UTC. Time now 2018-Feb-19 16:03 UTC.
Position N 16°20' W 062°24'.

Length 110 m; draft 5.3 m.

Type: Ship. MMSI: 256084000.

Date/timePositionNaut miles runAvg speedWind from/ knotsBaromVisibWave heightAir tempDewpointWater temp
2018-Feb-18 09:16N 16°20' W 062°24'2 8.5
2018-Feb-18 09:00N 16°22' W 062°25'4 8.6
2018-Feb-18 08:30N 16°26' W 062°27'6 8.2
2018-Feb-18 07:47N 16°31' W 062°30'2 8.3
2018-Feb-18 07:30N 16°33' W 062°31'63 8.4
2018-Feb-18 00:00N 17°33' W 062°54'5 9.1
2018-Feb-17 23:26N 17°38' W 062°53'4 9.1
2018-Feb-17 22:59N 17°42' W 062°53'12 0.8
2018-Feb-17 07:59N 17°52' W 062°60'3 6.3
2018-Feb-17 07:30N 17°53' W 063°03'3 6.2
2018-Feb-17 06:58N 17°53' W 063°07'3 6.2
2018-Feb-17 06:27N 17°53' W 063°10'3 6.3
2018-Feb-17 05:59N 17°53' W 063°13'3 6.4
2018-Feb-17 05:30N 17°53' W 063°16'4 6.8
2018-Feb-17 04:54N 17°53' W 063°20'3 7.1
2018-Feb-17 04:28N 17°54' W 063°24'3 7.2
2018-Feb-17 04:00N 17°54' W 063°27'4 7.2
2018-Feb-17 03:30N 17°54' W 063°31'4 7.0
2018-Feb-17 03:00N 17°55' W 063°35'  
Track history (hours):
 
Tides and Currents Weather Stations Pressure Air Temp Water Temp Dewpoint Dewpoint Depression Visibility Wind Speed Wind Dir Waves Ship Positions

Sea Cloud

Ship's website: http://www.seacloud.com/en/the-ships/sea-cloud.html

Last reported at 2018-Feb-18 09:16 UTC. Time now 2018-Feb-19 16:03 UTC.
Position N 16°20' W 062°24'.

Length 110 m; draft 5.3 m.

Type: Ship. MMSI: 256084000.

Date/timePositionNaut miles runAvg speedWind from/ knotsBaromVisibWave heightAir tempDewpointWater temp
2018-Feb-18 09:16N 16°20' W 062°24'2 8.5
2018-Feb-18 09:00N 16°22' W 062°25'4 8.6
2018-Feb-18 08:30N 16°26' W 062°27'6 8.2
2018-Feb-18 07:47N 16°31' W 062°30'2 8.3
2018-Feb-18 07:30N 16°33' W 062°31'63 8.4
2018-Feb-18 00:00N 17°33' W 062°54'5 9.1
2018-Feb-17 23:26N 17°38' W 062°53'4 9.1
2018-Feb-17 22:59N 17°42' W 062°53'12 0.8
2018-Feb-17 07:59N 17°52' W 062°60'3 6.3
2018-Feb-17 07:30N 17°53' W 063°03'3 6.2
2018-Feb-17 06:58N 17°53' W 063°07'3 6.2
2018-Feb-17 06:27N 17°53' W 063°10'3 6.3
2018-Feb-17 05:59N 17°53' W 063°13'3 6.4
2018-Feb-17 05:30N 17°53' W 063°16'4 6.8
2018-Feb-17 04:54N 17°53' W 063°20'3 7.1
2018-Feb-17 04:28N 17°54' W 063°24'3 7.2
2018-Feb-17 04:00N 17°54' W 063°27'4 7.2
2018-Feb-17 03:30N 17°54' W 063°31'4 7.0
2018-Feb-17 03:00N 17°55' W 063°35'  

Dump ship's entire track history